createdAt,value
2023-04-13T00:02:10.007Z,5.79
2023-04-13T00:04:36.430Z,5.81
2023-04-13T00:07:02.789Z,5.85
2023-04-13T00:09:29.778Z,5.84
2023-04-13T00:11:56.217Z,5.76
2023-04-13T00:14:22.560Z,5.84
2023-04-13T00:16:51.148Z,5.85
2023-04-13T00:19:17.473Z,5.76
2023-04-13T00:21:43.773Z,5.85
2023-04-13T00:24:10.261Z,5.82
2023-04-13T00:26:36.640Z,5.74
2023-04-13T00:29:02.973Z,5.84
2023-04-13T00:31:29.319Z,5.83
2023-04-13T00:33:55.864Z,5.82
2023-04-13T00:36:22.420Z,5.84
2023-04-13T00:38:48.684Z,5.80
2023-04-13T00:41:15.030Z,5.82
2023-04-13T00:43:41.294Z,5.87
2023-04-13T00:46:07.738Z,5.85
2023-04-13T00:48:34.983Z,5.79
2023-04-13T00:51:02.355Z,5.91
2023-04-13T00:53:28.783Z,5.85
2023-04-13T00:55:56.180Z,5.86
2023-04-13T00:58:22.578Z,5.86
2023-04-13T01:00:48.932Z,5.82
2023-04-13T01:03:15.275Z,5.95
2023-04-13T01:05:49.077Z,5.92
2023-04-13T01:08:38.043Z,5.94
2023-04-13T01:11:11.515Z,5.95
2023-04-13T01:13:45.362Z,5.92
2023-04-13T01:16:30.660Z,5.93
2023-04-13T01:18:57.338Z,5.88
2023-04-13T01:21:27.994Z,5.86
2023-04-13T01:24:09.452Z,5.90
2023-04-13T01:27:03.493Z,5.83
2023-04-13T01:29:31.358Z,5.85
2023-04-13T01:31:58.425Z,5.82
2023-04-13T01:34:25.238Z,5.81
2023-04-13T01:36:51.733Z,5.80
2023-04-13T01:39:19.430Z,5.87
2023-04-13T01:41:45.998Z,5.80
2023-04-13T01:44:12.652Z,5.77
2023-04-13T01:46:44.107Z,5.83
2023-04-13T01:49:10.552Z,5.77
2023-04-13T01:51:37.051Z,5.90
2023-04-13T01:54:13.287Z,5.79
2023-04-13T01:56:40.510Z,5.80
2023-04-13T01:59:07.355Z,5.84
2023-04-13T02:01:34.039Z,5.86
2023-04-13T02:04:00.776Z,5.84
2023-04-13T02:06:27.284Z,5.86
2023-04-13T02:08:53.530Z,5.94
2023-04-13T02:11:19.984Z,5.91
2023-04-13T02:13:46.354Z,5.85
2023-04-13T02:16:12.704Z,5.92
2023-04-13T02:18:39.123Z,5.89
2023-04-13T02:21:06.303Z,5.95
2023-04-13T02:23:32.634Z,5.87
2023-04-13T02:25:58.932Z,5.90
2023-04-13T02:28:26.174Z,5.86
2023-04-13T02:30:52.538Z,5.88
2023-04-13T02:33:18.886Z,5.92
2023-04-13T02:35:45.166Z,5.96
2023-04-13T02:38:11.668Z,5.98
2023-04-13T02:40:38.073Z,6.04
2023-04-13T02:43:04.476Z,6.08
2023-04-13T02:45:30.859Z,6.03
2023-04-13T02:47:57.254Z,6.11
2023-04-13T02:50:23.640Z,6.21
2023-04-13T02:52:50.153Z,6.26
2023-04-13T02:55:16.724Z,6.18
2023-04-13T02:57:43.070Z,6.16
2023-04-13T03:00:09.550Z,6.28
2023-04-13T03:02:36.656Z,6.19
2023-04-13T03:05:04.809Z,6.26
2023-04-13T03:07:34.719Z,6.26
2023-04-13T03:10:01.096Z,6.33
2023-04-13T03:12:27.419Z,6.37
2023-04-13T03:14:53.658Z,6.41
2023-04-13T03:17:20.046Z,6.32
2023-04-13T03:19:46.923Z,6.40
2023-04-13T03:22:13.323Z,6.33
2023-04-13T03:24:39.674Z,6.35
2023-04-13T03:27:05.917Z,6.39
2023-04-13T03:29:32.276Z,6.33
2023-04-13T03:31:58.608Z,6.39
2023-04-13T03:34:24.842Z,6.38
2023-04-13T03:36:51.167Z,6.34
2023-04-13T03:39:17.444Z,6.39
2023-04-13T03:41:43.849Z,6.35
2023-04-13T03:44:10.208Z,6.33
2023-04-13T03:46:36.563Z,6.33
2023-04-13T03:49:06.593Z,6.33
2023-04-13T03:51:32.953Z,6.28
2023-04-13T03:53:59.372Z,6.26
2023-04-13T03:56:25.925Z,6.16
2023-04-13T03:58:55.719Z,6.12
2023-04-13T04:01:23.285Z,5.99
2023-04-13T04:03:49.764Z,5.92
2023-04-13T04:06:16.196Z,5.77
2023-04-13T04:08:42.526Z,5.79
2023-04-13T04:11:08.820Z,5.72
2023-04-13T04:13:35.124Z,5.65
2023-04-13T04:16:01.440Z,5.58
2023-04-13T04:18:30.454Z,5.51
2023-04-13T04:20:56.801Z,5.42
2023-04-13T04:23:23.097Z,5.42
2023-04-13T04:25:49.470Z,5.35
2023-04-13T04:28:15.720Z,5.35
2023-04-13T04:30:42.010Z,5.29
2023-04-13T04:33:08.271Z,5.31
2023-04-13T04:35:34.627Z,5.25
2023-04-13T04:38:01.104Z,5.31
2023-04-13T04:40:27.423Z,5.31
2023-04-13T04:42:53.731Z,5.30
2023-04-13T04:45:20.407Z,5.23
2023-04-13T04:47:46.821Z,5.31
2023-04-13T04:50:13.356Z,5.37
2023-04-13T04:52:40.840Z,5.45
2023-04-13T04:55:07.770Z,5.49
2023-04-13T04:57:34.182Z,5.55
2023-04-13T05:00:00.734Z,5.59
2023-04-13T05:02:28.059Z,5.61
2023-04-13T05:04:54.680Z,5.69
2023-04-13T05:07:21.364Z,5.63
2023-04-13T05:09:47.802Z,5.73
2023-04-13T05:12:14.173Z,5.73
2023-04-13T05:14:40.386Z,5.86
2023-04-13T05:17:06.716Z,5.87
2023-04-13T05:19:33.032Z,5.94
2023-04-13T05:21:59.735Z,6.02
2023-04-13T05:24:26.077Z,6.08
2023-04-13T05:27:01.317Z,6.25
2023-04-13T05:29:27.731Z,6.35
2023-04-13T05:31:54.121Z,6.56
2023-04-13T05:34:20.676Z,6.94
2023-04-13T05:36:46.882Z,7.37
2023-04-13T05:39:13.249Z,7.69
2023-04-13T05:41:39.598Z,8.04
2023-04-13T05:44:05.934Z,8.23
2023-04-13T05:46:32.315Z,8.59
2023-04-13T05:48:58.849Z,9.06
2023-04-13T05:51:25.620Z,9.53
2023-04-13T05:53:51.953Z,10.00
2023-04-13T05:56:18.339Z,10.33
2023-04-13T05:58:44.779Z,10.67
2023-04-13T06:01:11.122Z,10.73
2023-04-13T06:03:37.782Z,11.06
2023-04-13T06:06:04.662Z,11.42
2023-04-13T06:08:31.047Z,11.58
2023-04-13T06:10:57.367Z,12.05
2023-04-13T06:13:23.732Z,12.18
2023-04-13T06:15:50.156Z,11.90
2023-04-13T06:18:16.617Z,11.11
2023-04-13T06:20:43.000Z,10.70
2023-04-13T06:23:09.540Z,10.17
2023-04-13T06:25:36.023Z,9.52
2023-04-13T06:28:02.588Z,9.17
2023-04-13T06:30:29.029Z,8.96
2023-04-13T06:32:55.543Z,8.76
2023-04-13T06:35:22.110Z,8.67
2023-04-13T06:37:48.575Z,8.52
2023-04-13T06:40:15.407Z,8.30
2023-04-13T06:42:42.647Z,8.25
2023-04-13T06:45:10.059Z,8.08
2023-04-13T06:47:37.428Z,8.03
2023-04-13T06:50:05.485Z,7.87
2023-04-13T06:52:35.482Z,7.70
2023-04-13T06:55:02.552Z,7.46
2023-04-13T06:57:30.009Z,7.39
2023-04-13T06:59:56.517Z,7.33
2023-04-13T07:02:22.969Z,7.34
2023-04-13T07:04:49.453Z,7.28
2023-04-13T07:07:15.899Z,7.26
2023-04-13T07:09:42.279Z,7.30
2023-04-13T07:12:08.638Z,7.37
2023-04-13T07:14:36.277Z,7.22
2023-04-13T07:17:03.025Z,7.30
2023-04-13T07:19:34.053Z,7.32
2023-04-13T07:22:02.960Z,7.39
2023-04-13T07:24:30.231Z,7.41
2023-04-13T07:26:57.390Z,7.41
2023-04-13T07:29:26.851Z,7.42
2023-04-13T07:31:59.267Z,7.51
2023-04-13T07:34:25.673Z,7.46
2023-04-13T07:36:52.008Z,7.64
2023-04-13T07:39:19.393Z,7.74
2023-04-13T07:41:45.752Z,7.75
2023-04-13T07:44:12.139Z,7.90
2023-04-13T07:46:38.568Z,8.33
2023-04-13T07:49:05.013Z,8.68
2023-04-13T07:51:31.454Z,8.77
2023-04-13T07:53:57.856Z,8.66
2023-04-13T07:56:24.213Z,8.67
2023-04-13T07:58:50.612Z,8.59
2023-04-13T08:01:17.021Z,8.51
2023-04-13T08:03:43.474Z,8.43
2023-04-13T08:06:10.620Z,8.36
2023-04-13T08:08:37.270Z,8.17
2023-04-13T08:11:03.954Z,8.18
2023-04-13T08:13:30.601Z,8.13
2023-04-13T08:15:57.656Z,8.07
2023-04-13T08:18:24.311Z,8.06
2023-04-13T08:20:50.643Z,8.09
2023-04-13T08:23:16.994Z,8.12
2023-04-13T08:25:43.353Z,8.47
2023-04-13T08:28:09.823Z,8.88
2023-04-13T08:30:36.250Z,9.26
2023-04-13T08:33:03.035Z,9.49
2023-04-13T08:35:29.440Z,9.67
2023-04-13T08:37:55.840Z,9.81
2023-04-13T08:40:22.407Z,9.91
2023-04-13T08:42:48.821Z,10.35
2023-04-13T08:45:15.614Z,10.83
2023-04-13T08:47:42.479Z,11.32
2023-04-13T08:50:09.801Z,11.64
2023-04-13T08:52:36.505Z,12.04
2023-04-13T08:55:03.076Z,12.52
2023-04-13T08:57:30.457Z,13.11
2023-04-13T08:59:58.062Z,13.50
2023-04-13T09:02:31.927Z,13.89
2023-04-13T09:05:00.914Z,13.91
2023-04-13T09:07:32.365Z,13.72
2023-04-13T09:10:00.186Z,13.59
2023-04-13T09:12:28.121Z,13.41
2023-04-13T09:14:54.570Z,13.20
2023-04-13T09:17:27.823Z,13.01
2023-04-13T09:20:10.977Z,12.70
2023-04-13T09:22:37.423Z,12.65
2023-04-13T09:25:04.096Z,12.81
2023-04-13T09:27:30.764Z,12.89
2023-04-13T09:29:57.220Z,12.93
2023-04-13T09:32:25.608Z,12.77
2023-04-13T09:35:02.232Z,12.65
2023-04-13T09:37:28.564Z,12.34
2023-04-13T09:39:54.984Z,12.17
2023-04-13T09:42:21.338Z,12.09
2023-04-13T09:44:57.984Z,11.97
2023-04-13T09:47:24.571Z,11.92
2023-04-13T09:49:51.040Z,11.93
2023-04-13T09:52:23.941Z,11.96
2023-04-13T09:54:55.122Z,12.08
2023-04-13T09:57:30.233Z,12.02
2023-04-13T09:59:58.227Z,11.95
2023-04-13T10:02:25.645Z,11.88
2023-04-13T10:04:52.949Z,11.82
2023-04-13T10:07:19.635Z,11.75
2023-04-13T10:09:46.041Z,11.67
2023-04-13T10:12:14.662Z,11.78
2023-04-13T10:14:43.624Z,11.97
2023-04-13T10:17:36.161Z,12.24
2023-04-13T10:20:05.905Z,12.42
2023-04-13T10:22:32.290Z,12.57
2023-04-13T10:24:58.664Z,12.70
2023-04-13T10:27:28.007Z,12.61
2023-04-13T10:29:54.348Z,12.54
2023-04-13T10:32:27.958Z,12.69
2023-04-13T10:34:55.202Z,12.91
2023-04-13T10:37:27.738Z,13.20
2023-04-13T10:40:05.382Z,13.45
2023-04-13T10:45:18.562Z,13.83
2023-04-13T10:47:45.036Z,13.85
2023-04-13T10:50:19.435Z,13.89
2023-04-13T10:53:00.060Z,13.82
2023-04-13T10:55:27.053Z,13.62
2023-04-13T10:57:57.843Z,13.52
2023-04-13T11:00:34.713Z,13.35
2023-04-13T11:03:09.040Z,13.44
2023-04-13T11:05:35.768Z,13.57
2023-04-13T11:08:02.548Z,13.88
2023-04-13T11:10:29.278Z,14.05
2023-04-13T11:12:57.498Z,14.18
2023-04-13T11:15:28.941Z,14.19
2023-04-13T11:18:00.767Z,14.01
2023-04-13T11:20:34.038Z,13.72
2023-04-13T11:23:01.724Z,13.48
2023-04-13T11:28:09.113Z,12.94
2023-04-13T11:30:35.510Z,12.92
2023-04-13T11:33:01.880Z,12.98
2023-04-13T11:35:28.306Z,13.01
2023-04-13T11:37:55.947Z,13.10
2023-04-13T11:40:26.554Z,13.05
2023-04-13T11:42:54.898Z,13.21
2023-04-13T11:45:29.021Z,13.52
2023-04-13T11:47:57.159Z,13.75
2023-04-13T11:50:24.282Z,13.97
2023-04-13T11:52:54.271Z,14.03
2023-04-13T11:55:23.799Z,14.13
2023-04-13T11:57:52.152Z,14.47
2023-04-13T12:00:23.020Z,14.66
2023-04-13T12:03:01.246Z,14.51
2023-04-13T12:05:31.542Z,14.27
2023-04-13T12:07:59.780Z,13.86
2023-04-13T12:10:39.148Z,13.54
2023-04-13T12:15:50.880Z,13.07
2023-04-13T12:18:31.137Z,12.91
2023-04-13T12:21:02.964Z,12.88
2023-04-13T12:23:29.512Z,12.98
2023-04-13T12:25:57.626Z,13.11
2023-04-13T12:28:34.796Z,13.36
2023-04-13T12:31:09.192Z,13.34
2023-04-13T12:33:36.399Z,13.31
2023-04-13T12:36:03.229Z,13.34
2023-04-13T12:38:30.592Z,13.46
2023-04-13T12:41:01.852Z,13.52
2023-04-13T12:43:28.480Z,13.62
2023-04-13T12:45:55.687Z,13.52
2023-04-13T12:48:22.539Z,13.53
2023-04-13T12:50:49.400Z,13.46
2023-04-13T12:53:16.018Z,13.47
2023-04-13T12:55:42.939Z,13.54
2023-04-13T12:58:10.524Z,13.72
2023-04-13T13:00:37.021Z,14.03
2023-04-13T13:03:13.585Z,14.07
2023-04-13T13:05:41.371Z,14.04
2023-04-13T13:08:07.728Z,14.02
2023-04-13T13:10:35.807Z,14.16
2023-04-13T13:13:02.120Z,14.23
2023-04-13T13:15:28.558Z,14.47
2023-04-13T13:17:54.906Z,14.55
2023-04-13T13:20:21.510Z,14.64
2023-04-13T13:22:47.903Z,14.54
2023-04-13T13:25:14.371Z,14.42
2023-04-13T13:28:10.441Z,14.43
2023-04-13T13:30:27.032Z,14.40
2023-04-13T13:32:53.412Z,14.32
2023-04-13T13:35:19.806Z,14.43
2023-04-13T13:37:46.405Z,14.53
2023-04-13T13:40:13.151Z,14.69
2023-04-13T13:42:50.641Z,14.78
2023-04-13T13:45:18.467Z,14.94
2023-04-13T13:47:49.700Z,15.08
2023-04-13T13:50:16.198Z,15.20
2023-04-13T13:52:55.300Z,15.23
2023-04-13T13:55:28.420Z,15.28
2023-04-13T13:57:54.777Z,15.19
2023-04-13T14:00:21.244Z,15.02
2023-04-13T14:02:47.721Z,14.77
2023-04-13T14:05:14.280Z,14.72
2023-04-13T14:07:44.639Z,14.84
2023-04-13T14:10:11.619Z,15.00
2023-04-13T14:12:40.507Z,15.14
2023-04-13T14:15:10.652Z,15.29
2023-04-13T14:17:37.122Z,15.37
2023-04-13T14:20:04.533Z,15.40
2023-04-13T14:22:30.915Z,15.36
2023-04-13T14:24:58.836Z,15.28
2023-04-13T14:27:25.166Z,15.11
2023-04-13T14:29:51.491Z,14.92
2023-04-13T14:32:17.834Z,14.94
2023-04-13T14:34:44.152Z,14.83
2023-04-13T14:37:10.723Z,14.89
2023-04-13T14:39:37.082Z,14.84
2023-04-13T14:42:03.590Z,14.76
2023-04-13T14:44:29.963Z,14.76
2023-04-13T14:46:56.460Z,14.81
2023-04-13T14:49:22.929Z,14.74
2023-04-13T14:51:49.252Z,14.64
2023-04-13T14:54:15.592Z,14.65
2023-04-13T14:56:43.226Z,14.61
2023-04-13T14:59:09.663Z,14.65
2023-04-13T15:01:36.159Z,14.49
2023-04-13T15:04:03.223Z,14.53
2023-04-13T15:06:29.735Z,14.43
2023-04-13T15:08:56.100Z,14.43
2023-04-13T15:11:22.461Z,14.42
2023-04-13T15:13:49.120Z,14.47
2023-04-13T15:16:15.531Z,14.44
2023-04-13T15:18:41.916Z,14.38
2023-04-13T15:21:08.314Z,14.50
2023-04-13T15:23:35.093Z,14.52
2023-04-13T15:26:01.442Z,14.52
2023-04-13T15:28:27.848Z,14.59
2023-04-13T15:30:54.307Z,14.53
2023-04-13T15:33:20.663Z,14.47
2023-04-13T15:35:47.034Z,14.47
2023-04-13T15:38:13.428Z,14.31
2023-04-13T15:40:39.767Z,14.22
2023-04-13T15:43:06.179Z,14.21
2023-04-13T15:45:32.656Z,14.13
2023-04-13T15:47:59.226Z,14.14
2023-04-13T15:50:25.685Z,14.15
2023-04-13T15:52:52.030Z,14.14
2023-04-13T15:55:18.395Z,14.15
2023-04-13T15:57:44.710Z,14.08
2023-04-13T16:00:11.536Z,14.00
2023-04-13T16:02:38.520Z,13.79
2023-04-13T16:05:05.193Z,13.65
2023-04-13T16:07:31.499Z,13.41
2023-04-13T16:09:57.808Z,13.24
2023-04-13T16:12:25.427Z,13.17
2023-04-13T16:14:53.054Z,13.10
2023-04-13T16:17:19.413Z,13.13
2023-04-13T16:19:45.767Z,13.07
2023-04-13T16:22:12.408Z,13.11
2023-04-13T16:24:39.532Z,13.10
2023-04-13T16:27:05.901Z,13.11
2023-04-13T16:29:32.329Z,13.08
2023-04-13T16:31:58.698Z,13.03
2023-04-13T16:34:26.862Z,12.95
2023-04-13T16:36:53.583Z,12.93
2023-04-13T16:39:20.045Z,12.91
2023-04-13T16:41:46.389Z,12.85
2023-04-13T16:44:12.703Z,12.77
2023-04-13T16:46:39.096Z,12.68
2023-04-13T16:49:05.520Z,12.68
2023-04-13T16:51:31.955Z,12.66
2023-04-13T16:53:59.958Z,12.54
2023-04-13T16:56:29.791Z,12.45
2023-04-13T16:58:56.273Z,12.38
2023-04-13T17:01:22.740Z,12.40
2023-04-13T17:03:49.239Z,12.25
2023-04-13T17:06:15.613Z,12.16
2023-04-13T17:08:41.961Z,12.12
2023-04-13T17:11:08.351Z,11.93
2023-04-13T17:13:36.489Z,11.92
2023-04-13T17:16:03.305Z,11.84
2023-04-13T17:18:29.658Z,11.74
2023-04-13T17:20:56.532Z,11.76
2023-04-13T17:23:23.556Z,11.71
2023-04-13T17:25:53.275Z,11.60
2023-04-13T17:28:22.312Z,11.55
2023-04-13T17:30:48.660Z,11.48
2023-04-13T17:33:15.790Z,11.47
2023-04-13T17:35:42.158Z,11.39
2023-04-13T17:38:08.582Z,11.29
2023-04-13T17:40:35.222Z,11.20
2023-04-13T17:43:01.640Z,11.11
2023-04-13T17:45:28.047Z,10.91
2023-04-13T17:47:54.482Z,10.78
2023-04-13T17:50:20.848Z,10.66
2023-04-13T17:52:47.176Z,10.56
2023-04-13T17:55:13.657Z,10.46
2023-04-13T17:57:39.989Z,10.35
2023-04-13T18:00:08.185Z,10.24
2023-04-13T18:02:34.639Z,10.14
2023-04-13T18:05:01.070Z,10.00
2023-04-13T18:07:27.403Z,9.90
2023-04-13T18:09:53.809Z,9.83
2023-04-13T18:12:20.136Z,9.59
2023-04-13T18:14:46.462Z,9.57
2023-04-13T18:17:12.838Z,9.45
2023-04-13T18:19:39.204Z,9.32
2023-04-13T18:22:05.546Z,9.21
2023-04-13T18:24:31.936Z,9.07
2023-04-13T18:26:58.281Z,8.94
2023-04-13T18:29:24.611Z,8.89
2023-04-13T18:31:50.990Z,8.81
2023-04-13T18:34:17.360Z,8.69
2023-04-13T18:36:43.721Z,8.55
2023-04-13T18:39:10.111Z,8.53
2023-04-13T18:41:36.691Z,8.32
2023-04-13T18:44:03.289Z,8.25
2023-04-13T18:46:30.077Z,8.12
2023-04-13T18:48:56.420Z,7.93
2023-04-13T18:51:22.797Z,7.82
2023-04-13T18:53:49.203Z,7.70
2023-04-13T18:56:15.567Z,7.57
2023-04-13T18:58:41.890Z,7.45
2023-04-13T19:01:16.178Z,7.33
2023-04-13T19:03:42.740Z,7.34
2023-04-13T19:06:09.850Z,7.34
2023-04-13T19:08:36.216Z,7.32
2023-04-13T19:11:02.555Z,7.30
2023-04-13T19:13:28.933Z,7.23
2023-04-13T19:15:57.471Z,7.21
2023-04-13T19:18:24.067Z,7.11
2023-04-13T19:20:50.404Z,7.06
2023-04-13T19:23:16.801Z,6.97
2023-04-13T19:25:43.102Z,6.98
2023-04-13T19:28:09.475Z,6.98
2023-04-13T19:30:35.863Z,6.92
2023-04-13T19:33:02.278Z,6.79
2023-04-13T19:35:29.082Z,6.72
2023-04-13T19:37:55.432Z,6.58
2023-04-13T19:40:21.906Z,6.50
2023-04-13T19:42:48.244Z,6.37
2023-04-13T19:45:15.222Z,6.26
2023-04-13T19:47:42.240Z,6.17
2023-04-13T19:50:11.284Z,6.10
2023-04-13T19:52:38.533Z,5.93
2023-04-13T19:55:05.330Z,5.81
2023-04-13T19:57:31.665Z,5.67
2023-04-13T19:59:57.883Z,5.64
2023-04-13T20:02:24.444Z,5.50
2023-04-13T20:04:50.903Z,5.45
2023-04-13T20:07:17.923Z,5.37
2023-04-13T20:09:44.766Z,5.39
2023-04-13T20:12:11.261Z,5.29
2023-04-13T20:14:37.608Z,5.27
2023-04-13T20:17:03.824Z,5.22
2023-04-13T20:19:30.158Z,5.06
2023-04-13T20:21:56.564Z,5.05
2023-04-13T20:24:22.871Z,4.98
2023-04-13T20:26:49.132Z,5.02
2023-04-13T20:29:15.458Z,4.90
2023-04-13T20:31:41.714Z,4.91
2023-04-13T20:34:08.148Z,4.88
2023-04-13T20:36:34.526Z,4.78
2023-04-13T20:39:00.862Z,4.76
2023-04-13T20:41:30.112Z,4.62
2023-04-13T20:43:56.493Z,4.54
2023-04-13T20:46:22.782Z,4.48
2023-04-13T20:48:49.288Z,4.35
2023-04-13T20:51:15.707Z,4.24
2023-04-13T20:53:41.962Z,4.25
2023-04-13T20:56:08.342Z,4.24
2023-04-13T20:58:34.735Z,4.46
2023-04-13T21:01:01.186Z,4.64
2023-04-13T21:03:27.863Z,4.80
2023-04-13T21:05:54.281Z,4.96
2023-04-13T21:08:20.694Z,5.10
2023-04-13T21:10:47.007Z,5.23
2023-04-13T21:13:13.236Z,5.37
2023-04-13T21:15:39.558Z,5.48
2023-04-13T21:18:05.801Z,5.73
2023-04-13T21:20:32.223Z,5.87
2023-04-13T21:22:58.638Z,6.08
2023-04-13T21:25:25.816Z,6.08
2023-04-13T21:27:52.261Z,6.34
2023-04-13T21:30:18.599Z,6.44
2023-04-13T21:32:45.010Z,6.54
2023-04-13T21:35:11.499Z,6.56
2023-04-13T21:37:37.822Z,6.52
2023-04-13T21:40:04.309Z,6.53
2023-04-13T21:42:30.644Z,6.49
2023-04-13T21:44:57.141Z,6.50
2023-04-13T21:47:23.625Z,6.58
2023-04-13T21:49:49.969Z,6.60
2023-04-13T21:52:16.281Z,6.62
2023-04-13T21:54:42.611Z,6.57
2023-04-13T21:57:08.832Z,6.53
2023-04-13T21:59:35.259Z,6.37
2023-04-13T22:02:01.644Z,6.35
2023-04-13T22:04:28.263Z,6.13
2023-04-13T22:06:54.737Z,6.06
2023-04-13T22:09:21.088Z,5.99
2023-04-13T22:11:47.385Z,5.98
2023-04-13T22:14:13.757Z,5.85
2023-04-13T22:16:40.104Z,5.76
2023-04-13T22:19:06.368Z,5.69
2023-04-13T22:21:34.706Z,5.53
2023-04-13T22:24:01.074Z,5.47
2023-04-13T22:26:27.550Z,5.38
2023-04-13T22:28:53.881Z,5.33
2023-04-13T22:31:20.181Z,5.25
2023-04-13T22:33:46.638Z,5.19
2023-04-13T22:36:17.218Z,5.14
2023-04-13T22:38:43.608Z,4.99
2023-04-13T22:41:09.992Z,5.00
2023-04-13T22:43:36.288Z,4.92
2023-04-13T22:46:02.892Z,4.80
2023-04-13T22:48:29.699Z,4.78
2023-04-13T22:50:57.016Z,4.68
2023-04-13T22:53:23.434Z,4.61
2023-04-13T22:55:49.800Z,4.57
2023-04-13T22:58:16.150Z,4.62
2023-04-13T23:00:42.387Z,4.55
2023-04-13T23:03:08.810Z,4.39
2023-04-13T23:05:35.360Z,4.39
2023-04-13T23:08:01.768Z,4.37
2023-04-13T23:10:28.059Z,4.33
2023-04-13T23:12:54.425Z,4.30
2023-04-13T23:15:20.677Z,4.24
2023-04-13T23:17:47.036Z,4.07
2023-04-13T23:20:13.391Z,4.08
2023-04-13T23:22:39.762Z,3.94
2023-04-13T23:25:06.186Z,3.94
2023-04-13T23:27:32.510Z,3.82
2023-04-13T23:29:58.840Z,3.84
2023-04-13T23:32:25.183Z,3.77
2023-04-13T23:34:51.476Z,3.78
2023-04-13T23:37:17.914Z,3.74
2023-04-13T23:39:44.161Z,3.71
2023-04-13T23:42:10.537Z,3.60
2023-04-13T23:44:36.816Z,3.60
2023-04-13T23:47:03.398Z,3.49
2023-04-13T23:49:29.733Z,3.50
2023-04-13T23:51:56.087Z,3.37
2023-04-13T23:54:22.376Z,3.32
2023-04-13T23:56:48.702Z,3.22
2023-04-13T23:59:15.087Z,3.10
